createdAt,value
2018-10-05T00:00:12.536Z,9.60
2018-10-05T00:02:41.483Z,9.70
2018-10-05T00:05:11.649Z,9.70
2018-10-05T00:07:42.065Z,9.70
2018-10-05T00:10:13.006Z,9.60
2018-10-05T00:12:43.478Z,9.70
2018-10-05T00:15:13.458Z,9.70
2018-10-05T00:17:43.536Z,9.70
2018-10-05T00:20:14.192Z,9.70
2018-10-05T00:22:44.737Z,9.70
2018-10-05T00:25:15.176Z,9.70
2018-10-05T00:27:45.013Z,9.70
2018-10-05T00:30:16.230Z,9.70
2018-10-05T00:32:48.389Z,9.70
2018-10-05T00:35:19.295Z,9.60
2018-10-05T00:37:49.624Z,9.60
2018-10-05T00:40:21.461Z,9.70
2018-10-05T00:42:51.621Z,9.80
2018-10-05T00:45:23.213Z,9.80
2018-10-05T00:47:53.795Z,9.80
2018-10-05T00:50:24.418Z,9.90
2018-10-05T00:52:54.168Z,9.90
2018-10-05T00:55:24.228Z,9.90
2018-10-05T00:57:54.836Z,10.00
2018-10-05T01:00:24.098Z,10.00
2018-10-05T01:02:54.721Z,10.00
2018-10-05T01:05:25.250Z,10.10
2018-10-05T01:07:57.910Z,10.10
2018-10-05T01:10:28.653Z,10.20
2018-10-05T01:13:00.626Z,10.30
2018-10-05T01:15:32.477Z,10.30
2018-10-05T01:18:02.208Z,10.30
2018-10-05T01:20:33.021Z,10.30
2018-10-05T01:23:04.001Z,10.30
2018-10-05T01:25:34.445Z,10.40
2018-10-05T01:28:05.611Z,10.40
2018-10-05T01:30:36.301Z,10.40
2018-10-05T01:33:06.945Z,10.40
2018-10-05T01:35:39.204Z,10.50
2018-10-05T01:38:11.346Z,10.50
2018-10-05T01:40:43.229Z,10.50
2018-10-05T01:43:13.172Z,10.50
2018-10-05T01:45:44.189Z,10.50
2018-10-05T01:48:13.608Z,10.50
2018-10-05T01:50:43.672Z,10.60
2018-10-05T01:53:14.036Z,10.60
2018-10-05T01:55:44.909Z,10.50
2018-10-05T01:58:16.328Z,10.60
2018-10-05T02:00:46.749Z,10.60
2018-10-05T02:03:17.225Z,10.70
2018-10-05T02:05:48.015Z,10.70
2018-10-05T02:08:18.781Z,10.70
2018-10-05T02:10:49.879Z,10.80
2018-10-05T02:13:19.649Z,10.80
2018-10-05T02:15:50.137Z,10.90
2018-10-05T02:18:20.782Z,10.90
2018-10-05T02:20:51.441Z,10.80
2018-10-05T02:23:21.591Z,10.90
2018-10-05T02:25:52.881Z,10.90
2018-10-05T02:28:22.461Z,10.90
2018-10-05T02:30:53.717Z,10.80
2018-10-05T02:33:23.321Z,10.90
2018-10-05T02:35:53.425Z,10.90
2018-10-05T02:38:24.205Z,10.90
2018-10-05T02:40:54.380Z,10.90
2018-10-05T02:43:25.081Z,10.90
2018-10-05T02:45:55.565Z,10.80
2018-10-05T02:48:25.561Z,10.80
2018-10-05T02:50:55.453Z,10.80
2018-10-05T02:53:26.221Z,10.80
2018-10-05T02:55:55.416Z,10.80
2018-10-05T02:58:25.508Z,10.80
2018-10-05T03:01:06.665Z,10.80
2018-10-05T03:03:39.432Z,10.80
2018-10-05T03:06:09.194Z,10.90
2018-10-05T03:08:41.021Z,10.90
2018-10-05T03:11:10.541Z,11.00
2018-10-05T03:13:41.404Z,11.00
2018-10-05T03:16:13.521Z,11.10
2018-10-05T03:18:44.265Z,11.10
2018-10-05T03:21:14.976Z,11.10
2018-10-05T03:23:45.301Z,11.10
2018-10-05T03:26:15.139Z,11.10
2018-10-05T03:28:47.360Z,11.10
2018-10-05T03:31:18.880Z,11.10
2018-10-05T03:33:49.684Z,11.20
2018-10-05T03:36:20.020Z,11.20
2018-10-05T03:38:50.769Z,11.20
2018-10-05T03:41:21.251Z,11.20
2018-10-05T03:43:52.242Z,11.20
2018-10-05T03:46:21.889Z,11.20
2018-10-05T03:48:52.356Z,11.20
2018-10-05T03:51:23.162Z,11.20
2018-10-05T03:53:53.345Z,11.30
2018-10-05T03:56:22.564Z,11.30
2018-10-05T03:58:54.021Z,11.20
2018-10-05T04:01:24.691Z,11.30
2018-10-05T04:03:56.202Z,11.30
2018-10-05T04:06:27.725Z,11.40
2018-10-05T04:08:58.750Z,11.50
2018-10-05T04:11:28.761Z,11.50
2018-10-05T04:13:59.490Z,11.50
2018-10-05T04:16:30.020Z,11.60
2018-10-05T04:19:01.040Z,11.60
2018-10-05T04:21:31.586Z,11.60
2018-10-05T04:24:01.785Z,11.70
2018-10-05T04:26:32.784Z,11.70
2018-10-05T04:29:04.242Z,11.80
2018-10-05T04:31:35.079Z,11.90
2018-10-05T04:34:05.632Z,11.90
2018-10-05T04:36:37.152Z,11.90
2018-10-05T04:39:09.477Z,11.90
2018-10-05T04:41:41.760Z,12.00
2018-10-05T04:44:12.686Z,12.00
2018-10-05T04:46:43.677Z,12.00
2018-10-05T04:49:13.429Z,12.00
2018-10-05T04:51:44.168Z,12.00
2018-10-05T04:54:13.954Z,12.00
2018-10-05T04:56:43.601Z,12.10
2018-10-05T04:59:12.833Z,12.10
2018-10-05T05:01:42.787Z,12.20
2018-10-05T05:04:13.458Z,12.20
2018-10-05T05:06:44.232Z,12.20
2018-10-05T05:09:14.175Z,12.20
2018-10-05T05:11:44.969Z,12.30
2018-10-05T05:14:16.336Z,12.30
2018-10-05T05:16:48.296Z,12.30
2018-10-05T05:19:19.200Z,12.40
2018-10-05T05:21:50.149Z,12.40
2018-10-05T05:24:20.753Z,12.50
2018-10-05T05:26:50.530Z,12.50
2018-10-05T05:29:22.215Z,12.50
2018-10-05T05:31:54.465Z,12.50
2018-10-05T05:34:25.842Z,12.50
2018-10-05T05:36:55.601Z,12.50
2018-10-05T05:39:30.305Z,12.50
2018-10-05T05:42:00.114Z,12.50
2018-10-05T05:44:30.985Z,12.60
2018-10-05T05:47:01.094Z,12.60
2018-10-05T05:49:31.849Z,12.60
2018-10-05T05:52:01.011Z,12.60
2018-10-05T05:54:30.941Z,12.60
2018-10-05T05:57:01.129Z,12.60
2018-10-05T05:59:32.609Z,12.60
2018-10-05T06:02:05.320Z,12.70
2018-10-05T06:04:35.996Z,12.70
2018-10-05T06:07:06.434Z,12.70
2018-10-05T06:09:37.918Z,12.70
2018-10-05T06:12:10.292Z,12.70
2018-10-05T06:14:42.133Z,12.70
2018-10-05T06:17:12.045Z,12.70
2018-10-05T06:19:42.055Z,12.80
2018-10-05T06:22:13.509Z,12.80
2018-10-05T06:24:44.350Z,12.80
2018-10-05T06:27:13.295Z,12.80
2018-10-05T06:29:43.887Z,12.80
2018-10-05T06:32:14.861Z,12.80
2018-10-05T06:34:44.237Z,12.80
2018-10-05T06:37:14.721Z,12.80
2018-10-05T06:39:45.287Z,12.80
2018-10-05T06:42:15.605Z,12.90
2018-10-05T06:44:44.795Z,12.90
2018-10-05T06:47:14.593Z,13.00
2018-10-05T06:49:45.635Z,13.00
2018-10-05T06:52:16.179Z,13.10
2018-10-05T06:54:47.465Z,13.20
2018-10-05T06:57:18.193Z,13.20
2018-10-05T06:59:49.874Z,13.30
2018-10-05T07:02:20.995Z,13.30
2018-10-05T07:04:51.497Z,13.30
2018-10-05T07:07:21.305Z,13.20
2018-10-05T07:09:51.233Z,13.20
2018-10-05T07:12:20.915Z,13.20
2018-10-05T07:14:51.509Z,13.30
2018-10-05T07:17:22.229Z,13.20
2018-10-05T07:19:51.883Z,13.20
2018-10-05T07:22:23.469Z,13.30
2018-10-05T07:24:53.843Z,13.40
2018-10-05T07:27:25.225Z,13.40
2018-10-05T07:29:58.688Z,13.40
2018-10-05T07:32:29.426Z,13.40
2018-10-05T07:35:00.524Z,13.40
2018-10-05T07:37:30.787Z,13.40
2018-10-05T07:40:01.911Z,13.50
2018-10-05T07:42:32.591Z,13.50
2018-10-05T07:45:03.395Z,13.50
2018-10-05T07:47:33.202Z,13.50
2018-10-05T07:50:05.502Z,13.50
2018-10-05T07:52:37.859Z,13.50
2018-10-05T07:55:08.362Z,13.60
2018-10-05T07:57:38.984Z,13.60
2018-10-05T08:00:08.105Z,13.70
2018-10-05T08:02:39.012Z,13.70
2018-10-05T08:05:10.077Z,13.80
2018-10-05T08:07:39.010Z,13.90
2018-10-05T08:10:09.328Z,14.00
2018-10-05T08:12:40.911Z,14.20
2018-10-05T08:15:11.441Z,14.40
2018-10-05T08:17:41.529Z,14.60
2018-10-05T08:20:12.664Z,14.70
2018-10-05T08:22:43.630Z,14.80
2018-10-05T08:25:14.861Z,15.10
2018-10-05T08:27:45.505Z,15.10
2018-10-05T08:30:14.285Z,15.20
2018-10-05T08:32:43.580Z,15.20
2018-10-05T08:35:15.067Z,15.00
2018-10-05T08:37:45.981Z,15.00
2018-10-05T08:40:16.576Z,14.70
2018-10-05T08:42:47.973Z,14.70
2018-10-05T08:45:17.819Z,14.70
2018-10-05T08:47:48.539Z,14.90
2018-10-05T08:50:20.003Z,15.00
2018-10-05T08:52:49.769Z,15.20
2018-10-05T08:55:19.737Z,15.30
2018-10-05T08:57:50.465Z,15.40
2018-10-05T09:00:20.855Z,15.60
2018-10-05T09:02:51.371Z,16.00
2018-10-05T09:05:22.047Z,16.10
2018-10-05T09:07:52.149Z,16.40
2018-10-05T09:10:21.213Z,16.50
2018-10-05T09:12:51.689Z,16.90
2018-10-05T09:15:22.201Z,17.10
2018-10-05T09:17:52.788Z,17.20
2018-10-05T09:20:22.757Z,17.30
2018-10-05T09:22:53.077Z,17.70
2018-10-05T09:25:21.935Z,17.60
2018-10-05T09:27:51.927Z,17.30
2018-10-05T09:30:22.510Z,17.20
2018-10-05T09:32:52.949Z,17.20
2018-10-05T09:35:22.449Z,17.80
2018-10-05T09:37:53.341Z,18.80
2018-10-05T09:40:24.997Z,19.00
2018-10-05T09:42:54.096Z,19.70
2018-10-05T09:45:23.864Z,20.40
2018-10-05T09:47:54.505Z,20.70
2018-10-05T09:50:24.353Z,20.60
2018-10-05T09:52:55.749Z,21.30
2018-10-05T09:55:26.319Z,21.80
2018-10-05T09:57:55.989Z,22.10
2018-10-05T10:00:31.605Z,22.90
2018-10-05T10:03:00.421Z,23.50
2018-10-05T10:05:31.347Z,23.60
2018-10-05T10:08:01.794Z,24.20
2018-10-05T10:10:31.537Z,24.80
2018-10-05T10:13:02.029Z,24.70
2018-10-05T10:15:32.111Z,24.90
2018-10-05T10:18:03.996Z,25.40
2018-10-05T10:20:34.508Z,25.30
2018-10-05T10:23:05.538Z,24.60
2018-10-05T10:25:35.518Z,24.70
2018-10-05T10:28:05.103Z,24.90
2018-10-05T10:30:36.164Z,25.70
2018-10-05T10:33:06.664Z,26.00
2018-10-05T10:35:36.324Z,26.40
2018-10-05T10:38:06.195Z,26.50
2018-10-05T10:40:36.386Z,26.70
2018-10-05T10:43:08.042Z,27.70
2018-10-05T10:45:38.721Z,27.90
2018-10-05T10:48:07.677Z,28.10
2018-10-05T10:50:38.607Z,27.70
2018-10-05T10:53:09.647Z,28.40
2018-10-05T10:55:40.616Z,28.90
2018-10-05T10:58:11.837Z,29.20
2018-10-05T11:00:42.308Z,29.10
2018-10-05T11:03:12.569Z,29.50
2018-10-05T11:05:42.407Z,28.90
2018-10-05T11:08:12.783Z,28.70
2018-10-05T11:10:45.020Z,28.70
2018-10-05T11:13:17.481Z,29.00
2018-10-05T11:15:48.179Z,29.00
2018-10-05T11:18:20.086Z,28.80
2018-10-05T11:20:49.955Z,29.10
2018-10-05T11:23:20.131Z,29.20
2018-10-05T11:25:50.960Z,29.80
2018-10-05T11:28:20.798Z,29.60
2018-10-05T11:30:52.332Z,29.60
2018-10-05T11:33:23.690Z,29.90
2018-10-05T11:35:55.130Z,30.10
2018-10-05T11:38:25.734Z,29.70
2018-10-05T11:40:56.690Z,28.70
2018-10-05T11:43:28.435Z,28.60
2018-10-05T11:45:58.014Z,28.20
2018-10-05T11:48:27.860Z,27.80
2018-10-05T11:50:57.450Z,28.10
2018-10-05T11:53:28.236Z,29.30
2018-10-05T11:55:58.827Z,29.80
2018-10-05T11:58:29.991Z,29.50
2018-10-05T12:01:00.825Z,30.00
2018-10-05T12:03:31.387Z,29.30
2018-10-05T12:06:03.817Z,30.10
2018-10-05T12:08:36.588Z,29.80
2018-10-05T12:11:07.326Z,29.90
2018-10-05T12:13:38.725Z,29.70
2018-10-05T12:16:09.793Z,29.20
2018-10-05T12:18:40.126Z,29.70
2018-10-05T12:21:10.230Z,30.20
2018-10-05T12:23:40.142Z,29.80
2018-10-05T12:26:10.038Z,29.60
2018-10-05T12:28:40.734Z,30.30
2018-10-05T12:31:10.932Z,29.70
2018-10-05T12:33:40.878Z,29.30
2018-10-05T12:36:13.568Z,29.80
2018-10-05T12:38:43.688Z,30.70
2018-10-05T12:41:14.130Z,31.10
2018-10-05T12:43:44.950Z,30.10
2018-10-05T12:46:14.850Z,28.80
2018-10-05T12:48:45.836Z,27.70
2018-10-05T12:51:16.669Z,25.90
2018-10-05T12:53:47.685Z,24.70
2018-10-05T12:56:20.327Z,23.60
2018-10-05T12:58:51.375Z,22.80
2018-10-05T13:01:23.624Z,22.30
2018-10-05T13:03:54.031Z,21.90
2018-10-05T13:06:23.790Z,21.40
2018-10-05T13:08:53.597Z,20.70
2018-10-05T13:11:23.606Z,20.20
2018-10-05T13:13:54.875Z,19.70
2018-10-05T13:16:25.581Z,19.50
2018-10-05T13:18:54.540Z,19.20
2018-10-05T13:21:24.815Z,19.10
2018-10-05T13:23:56.757Z,18.80
2018-10-05T13:26:27.732Z,18.60
2018-10-05T13:28:57.855Z,18.40
2018-10-05T13:31:29.324Z,18.30
2018-10-05T13:34:00.198Z,18.30
2018-10-05T13:36:30.473Z,18.00
2018-10-05T13:39:00.364Z,18.10
2018-10-05T13:41:29.880Z,18.00
2018-10-05T13:44:00.332Z,17.90
2018-10-05T13:46:30.305Z,17.80
2018-10-05T13:48:59.202Z,17.70
2018-10-05T13:51:30.961Z,17.80
2018-10-05T13:54:01.609Z,17.80
2018-10-05T13:56:32.283Z,17.50
2018-10-05T13:59:02.861Z,17.20
2018-10-05T14:01:34.737Z,17.20
2018-10-05T14:04:06.072Z,17.10
2018-10-05T14:06:37.408Z,17.10
2018-10-05T14:09:10.904Z,17.10
2018-10-05T14:11:41.454Z,17.00
2018-10-05T14:14:12.523Z,16.90
2018-10-05T14:16:42.721Z,16.80
2018-10-05T14:19:14.973Z,16.90
2018-10-05T14:21:46.297Z,16.80
2018-10-05T14:24:16.190Z,16.80
2018-10-05T14:26:45.552Z,16.80
2018-10-05T14:29:15.302Z,16.80
2018-10-05T14:31:45.117Z,16.60
2018-10-05T14:34:15.500Z,16.50
2018-10-05T14:36:46.180Z,16.50
2018-10-05T14:39:15.430Z,16.50
2018-10-05T14:41:45.383Z,16.30
2018-10-05T14:44:17.100Z,16.30
2018-10-05T14:46:47.734Z,16.20
2018-10-05T14:49:17.484Z,16.20
2018-10-05T14:51:48.098Z,16.20
2018-10-05T14:54:17.592Z,16.20
2018-10-05T14:56:47.394Z,16.10
2018-10-05T14:59:18.266Z,16.10
2018-10-05T15:01:48.308Z,16.00
2018-10-05T15:04:18.858Z,16.00
2018-10-05T15:06:50.462Z,15.90
2018-10-05T15:09:21.483Z,15.80
2018-10-05T15:11:52.227Z,15.80
2018-10-05T15:14:23.223Z,15.70
2018-10-05T15:16:53.775Z,15.70
2018-10-05T15:19:25.376Z,15.60
2018-10-05T15:21:56.479Z,15.50
2018-10-05T15:24:27.161Z,15.50
2018-10-05T15:26:57.769Z,15.40
2018-10-05T15:29:27.465Z,15.40
2018-10-05T15:31:59.182Z,15.30
2018-10-05T15:34:30.105Z,15.30
2018-10-05T15:36:59.985Z,15.20
2018-10-05T15:39:30.715Z,15.10
2018-10-05T15:42:01.093Z,15.20
2018-10-05T15:44:30.987Z,15.10
2018-10-05T15:47:16.655Z,15.10
2018-10-05T15:49:49.186Z,15.00
2018-10-05T15:52:19.269Z,14.80
2018-10-05T15:54:49.560Z,14.80
2018-10-05T15:57:19.880Z,14.60
2018-10-05T15:59:48.813Z,14.70
2018-10-05T16:02:18.990Z,14.70
2018-10-05T16:04:49.128Z,14.50
2018-10-05T16:07:19.169Z,14.60
2018-10-05T16:09:50.127Z,14.60
2018-10-05T16:12:20.441Z,14.60
2018-10-05T16:14:51.556Z,14.50
2018-10-05T16:17:22.917Z,14.40
2018-10-05T16:19:53.812Z,14.40
2018-10-05T16:22:24.940Z,14.30
2018-10-05T16:24:55.920Z,14.30
2018-10-05T16:27:26.899Z,14.20
2018-10-05T16:29:58.419Z,14.20
2018-10-05T16:32:30.952Z,14.30
2018-10-05T16:35:01.638Z,14.20
2018-10-05T16:37:31.348Z,14.20
2018-10-05T16:40:01.243Z,14.20
2018-10-05T16:42:30.421Z,14.00
2018-10-05T16:45:01.607Z,14.00
2018-10-05T16:47:32.246Z,13.90
2018-10-05T16:50:02.952Z,13.90
2018-10-05T16:52:33.124Z,13.90
2018-10-05T16:55:04.131Z,13.90
2018-10-05T16:57:36.113Z,13.90
2018-10-05T17:00:06.678Z,13.80
2018-10-05T17:02:37.938Z,13.70
2018-10-05T17:05:08.306Z,13.70
2018-10-05T17:07:37.958Z,13.70
2018-10-05T17:10:08.824Z,13.60
2018-10-05T17:12:39.857Z,13.50
2018-10-05T17:15:08.909Z,13.40
2018-10-05T17:17:39.665Z,13.50
2018-10-05T17:20:09.898Z,13.40
2018-10-05T17:22:41.145Z,13.40
2018-10-05T17:25:10.450Z,13.40
2018-10-05T17:27:41.289Z,13.30
2018-10-05T17:30:11.476Z,13.30
2018-10-05T17:32:41.440Z,13.20
2018-10-05T17:35:10.447Z,13.20
2018-10-05T17:37:40.460Z,13.10
2018-10-05T17:40:11.375Z,13.10
2018-10-05T17:42:42.952Z,13.10
2018-10-05T17:45:13.414Z,13.00
2018-10-05T17:47:43.682Z,12.90
2018-10-05T17:50:13.735Z,12.80
2018-10-05T17:52:43.573Z,12.80
2018-10-05T17:55:14.917Z,12.70
2018-10-05T17:57:45.324Z,12.70
2018-10-05T18:00:16.415Z,12.60
2018-10-05T18:02:45.635Z,12.50
2018-10-05T18:05:16.261Z,12.40
2018-10-05T18:07:45.906Z,12.40
2018-10-05T18:10:15.357Z,12.30
2018-10-05T18:12:45.471Z,12.30
2018-10-05T18:15:16.948Z,12.20
2018-10-05T18:17:48.046Z,12.20
2018-10-05T18:20:19.099Z,12.10
2018-10-05T18:22:48.773Z,12.10
2018-10-05T18:25:20.444Z,12.20
2018-10-05T18:27:50.756Z,12.10
2018-10-05T18:30:20.937Z,12.10
2018-10-05T18:32:50.250Z,12.10
2018-10-05T18:35:20.245Z,12.10
2018-10-05T18:37:49.423Z,12.00
2018-10-05T18:40:19.010Z,12.00
2018-10-05T18:42:49.326Z,12.00
2018-10-05T18:45:18.683Z,11.90
2018-10-05T18:47:48.341Z,12.00
2018-10-05T18:50:19.383Z,11.90
2018-10-05T18:52:49.882Z,11.90
2018-10-05T18:55:21.136Z,11.80
2018-10-05T18:57:51.585Z,11.80
2018-10-05T19:00:21.408Z,11.80
2018-10-05T19:02:50.692Z,11.90
2018-10-05T19:05:20.657Z,11.80
2018-10-05T19:07:50.893Z,11.80
2018-10-05T19:10:21.479Z,11.90
2018-10-05T19:12:52.383Z,11.80
2018-10-05T19:15:22.838Z,11.80
2018-10-05T19:17:53.705Z,11.70
2018-10-05T19:20:24.256Z,11.70
2018-10-05T19:22:54.281Z,11.80
2018-10-05T19:25:25.150Z,11.80
2018-10-05T19:27:55.275Z,11.80
2018-10-05T19:30:26.605Z,11.80
2018-10-05T19:32:56.349Z,11.80
2018-10-05T19:35:28.274Z,11.80
2018-10-05T19:37:59.110Z,11.80
2018-10-05T19:40:29.144Z,11.80
2018-10-05T19:43:00.153Z,11.90
2018-10-05T19:45:30.006Z,11.80
2018-10-05T19:48:01.474Z,11.80
2018-10-05T19:50:32.945Z,11.80
2018-10-05T19:53:05.351Z,11.80
2018-10-05T19:55:37.546Z,11.70
2018-10-05T19:58:08.167Z,11.70
2018-10-05T20:00:40.159Z,11.70
2018-10-05T20:03:09.105Z,11.70
2018-10-05T20:05:39.972Z,11.70
2018-10-05T20:08:10.853Z,11.70
2018-10-05T20:10:41.075Z,11.60
2018-10-05T20:13:11.201Z,11.70
2018-10-05T20:15:41.242Z,11.70
2018-10-05T20:18:12.020Z,11.70
2018-10-05T20:20:40.913Z,11.70
2018-10-05T20:23:10.686Z,11.60
2018-10-05T20:25:42.844Z,11.60
2018-10-05T20:28:13.344Z,11.60
2018-10-05T20:30:43.687Z,11.60
2018-10-05T20:33:14.409Z,11.60
2018-10-05T20:35:46.790Z,11.60
2018-10-05T20:38:17.633Z,11.60
2018-10-05T20:40:48.230Z,11.60
2018-10-05T20:43:20.189Z,11.60
2018-10-05T20:45:50.358Z,11.60
2018-10-05T20:48:20.056Z,11.60
2018-10-05T20:50:49.886Z,11.60
2018-10-05T20:53:20.424Z,11.70
2018-10-05T20:55:49.949Z,11.60
2018-10-05T20:58:18.742Z,11.50
2018-10-05T21:00:50.472Z,11.60
2018-10-05T21:03:22.110Z,11.60
2018-10-05T21:05:52.718Z,11.50
2018-10-05T21:08:24.884Z,11.50
2018-10-05T21:10:54.351Z,11.50
2018-10-05T21:13:24.240Z,11.50
2018-10-05T21:15:53.940Z,11.40
2018-10-05T21:18:25.196Z,11.40
2018-10-05T21:20:56.961Z,11.30
2018-10-05T21:23:26.985Z,11.20
2018-10-05T21:25:57.763Z,11.20
2018-10-05T21:28:29.480Z,11.20
2018-10-05T21:30:59.853Z,11.10
2018-10-05T21:33:30.602Z,11.10
2018-10-05T21:36:01.148Z,11.10
2018-10-05T21:38:32.443Z,10.80
2018-10-05T21:41:04.031Z,10.90
2018-10-05T21:43:34.408Z,10.90
2018-10-05T21:46:06.212Z,10.90
2018-10-05T21:48:36.759Z,10.90
2018-10-05T21:51:06.987Z,10.90
2018-10-05T21:53:37.794Z,11.00
2018-10-05T21:56:07.723Z,10.90
2018-10-05T21:58:37.594Z,10.90
2018-10-05T22:01:09.916Z,10.90
2018-10-05T22:03:44.616Z,11.00
2018-10-05T22:06:15.249Z,11.00
2018-10-05T22:08:46.098Z,11.00
2018-10-05T22:11:17.399Z,10.90
2018-10-05T22:13:46.503Z,10.90
2018-10-05T22:16:17.176Z,10.70
2018-10-05T22:18:46.895Z,10.60
2018-10-05T22:21:17.049Z,10.50
2018-10-05T22:23:45.938Z,10.60
2018-10-05T22:26:15.605Z,10.50
2018-10-05T22:28:45.723Z,10.50
2018-10-05T22:31:15.395Z,10.50
2018-10-05T22:33:47.910Z,10.40
2018-10-05T22:36:17.686Z,10.40
2018-10-05T22:38:48.762Z,10.40
2018-10-05T22:41:18.740Z,10.40
2018-10-05T22:43:48.412Z,10.30
2018-10-05T22:46:19.880Z,10.30
2018-10-05T22:48:49.264Z,10.30
2018-10-05T22:51:18.574Z,10.30
2018-10-05T22:53:49.381Z,10.30
2018-10-05T22:56:19.909Z,10.30
2018-10-05T22:58:51.202Z,10.30
2018-10-05T23:01:22.206Z,10.30
2018-10-05T23:03:53.184Z,10.40
2018-10-05T23:06:22.182Z,10.30
2018-10-05T23:08:52.856Z,10.40
2018-10-05T23:11:23.082Z,10.30
2018-10-05T23:13:53.651Z,10.30
2018-10-05T23:16:23.238Z,10.40
2018-10-05T23:18:53.052Z,10.40
2018-10-05T23:21:23.980Z,10.30
2018-10-05T23:23:56.337Z,10.40
2018-10-05T23:26:26.775Z,10.40
2018-10-05T23:28:57.332Z,10.30
2018-10-05T23:31:27.913Z,10.30
2018-10-05T23:33:57.743Z,10.40
2018-10-05T23:36:28.200Z,10.40
2018-10-05T23:39:00.892Z,10.40
2018-10-05T23:41:31.669Z,10.40
2018-10-05T23:44:02.391Z,10.30
2018-10-05T23:46:33.581Z,10.30
2018-10-05T23:49:03.323Z,10.30
2018-10-05T23:51:32.901Z,10.30
2018-10-05T23:54:03.631Z,10.40
2018-10-05T23:56:34.021Z,10.30
2018-10-05T23:59:05.461Z,10.30
